createdAt,value
2018-05-23T00:02:17.353Z,21.10
2018-05-23T00:04:44.826Z,21.17
2018-05-23T00:07:12.267Z,20.77
2018-05-23T00:09:39.737Z,22.67
2018-05-23T00:12:07.204Z,19.77
2018-05-23T00:14:34.648Z,20.67
2018-05-23T00:17:02.220Z,20.67
2018-05-23T00:19:29.990Z,22.30
2018-05-23T00:21:57.471Z,22.60
2018-05-23T00:24:24.941Z,22.23
2018-05-23T00:26:52.459Z,23.27
2018-05-23T00:29:19.923Z,23.03
2018-05-23T00:31:47.379Z,20.90
2018-05-23T00:34:14.815Z,20.33
2018-05-23T00:36:42.629Z,25.47
2018-05-23T00:39:10.122Z,23.00
2018-05-23T00:41:37.593Z,23.07
2018-05-23T00:44:05.044Z,21.50
2018-05-23T00:46:32.487Z,19.00
2018-05-23T00:49:00.021Z,22.50
2018-05-23T00:51:27.481Z,19.47
2018-05-23T00:53:54.949Z,18.50
2018-05-23T00:56:22.391Z,20.73
2018-05-23T00:58:49.839Z,25.80
2018-05-23T01:01:17.316Z,25.07
2018-05-23T01:03:44.792Z,20.47
2018-05-23T01:06:12.260Z,23.93
2018-05-23T01:08:39.725Z,21.27
2018-05-23T01:11:07.178Z,23.13
2018-05-23T01:13:34.645Z,21.13
2018-05-23T01:16:02.093Z,22.47
2018-05-23T01:18:29.543Z,21.10
2018-05-23T01:20:57.216Z,20.30
2018-05-23T01:23:24.689Z,24.70
2018-05-23T01:25:52.161Z,23.90
2018-05-23T01:28:19.691Z,23.00
2018-05-23T01:30:47.484Z,19.97
2018-05-23T01:33:14.929Z,20.00
2018-05-23T01:35:42.399Z,23.73
2018-05-23T01:38:09.881Z,35.57
2018-05-23T01:40:37.565Z,18.70
2018-05-23T01:43:05.045Z,18.90
2018-05-23T01:45:32.513Z,21.50
2018-05-23T01:47:59.944Z,24.57
2018-05-23T01:50:27.408Z,23.20
2018-05-23T01:52:54.869Z,21.10
2018-05-23T01:55:22.350Z,22.03
2018-05-23T01:57:49.805Z,26.33
2018-05-23T02:00:17.244Z,22.10
2018-05-23T02:02:44.739Z,22.27
2018-05-23T02:05:12.606Z,23.73
2018-05-23T02:07:40.084Z,28.07
2018-05-23T02:10:07.867Z,20.53
2018-05-23T02:12:35.394Z,24.63
2018-05-23T02:15:02.853Z,23.50
2018-05-23T02:17:30.309Z,36.80
2018-05-23T02:19:58.058Z,21.63
2018-05-23T02:22:25.524Z,19.87
2018-05-23T02:24:52.996Z,25.73
2018-05-23T02:27:20.519Z,25.30
2018-05-23T02:29:47.964Z,23.80
2018-05-23T02:32:15.486Z,23.60
2018-05-23T02:34:42.949Z,28.33
2018-05-23T02:37:10.392Z,19.33
2018-05-23T02:39:37.903Z,22.20
2018-05-23T02:42:05.352Z,19.70
2018-05-23T02:44:32.817Z,25.70
2018-05-23T02:47:00.369Z,23.43
2018-05-23T02:49:27.718Z,24.40
2018-05-23T02:51:55.185Z,26.10
2018-05-23T02:54:22.645Z,24.93
2018-05-23T02:56:50.088Z,21.60
2018-05-23T02:59:17.563Z,20.87
2018-05-23T03:01:45.018Z,25.23
2018-05-23T03:04:12.498Z,26.43
2018-05-23T03:06:39.944Z,19.97
2018-05-23T03:09:07.393Z,20.43
2018-05-23T03:11:34.897Z,18.67
2018-05-23T03:14:02.335Z,20.23
2018-05-23T03:16:29.799Z,26.27
2018-05-23T03:18:57.240Z,18.83
2018-05-23T03:21:24.896Z,26.60
2018-05-23T03:23:52.363Z,20.30
2018-05-23T03:26:19.813Z,21.87
2018-05-23T03:28:47.517Z,19.70
2018-05-23T03:31:15.005Z,19.43
2018-05-23T03:33:42.446Z,21.43
2018-05-23T03:36:09.891Z,22.80
2018-05-23T03:38:37.373Z,21.10
2018-05-23T03:41:04.816Z,19.60
2018-05-23T03:43:32.276Z,17.43
2018-05-23T03:45:59.728Z,19.30
2018-05-23T03:48:27.182Z,22.57
2018-05-23T03:50:54.624Z,20.63
2018-05-23T03:53:22.094Z,22.90
2018-05-23T03:55:49.531Z,18.73
2018-05-23T03:58:17.053Z,17.87
2018-05-23T04:00:56.344Z,16.93
2018-05-23T04:03:35.655Z,17.53
2018-05-23T04:06:14.954Z,20.20
2018-05-23T04:08:42.404Z,16.37
2018-05-23T04:11:10.383Z,18.90
2018-05-23T04:13:37.844Z,15.60
2018-05-23T04:16:05.289Z,18.17
2018-05-23T04:18:32.727Z,16.03
2018-05-23T04:21:00.180Z,20.03
2018-05-23T04:23:28.540Z,15.50
2018-05-23T04:25:56.383Z,16.80
2018-05-23T04:28:24.267Z,15.37
2018-05-23T04:30:51.717Z,19.83
2018-05-23T04:33:19.616Z,16.30
2018-05-23T04:35:47.089Z,20.90
2018-05-23T04:38:14.600Z,15.53
2018-05-23T04:40:42.044Z,17.57
2018-05-23T04:43:09.505Z,20.17
2018-05-23T04:45:36.942Z,17.57
2018-05-23T04:48:04.390Z,16.73
2018-05-23T04:50:31.849Z,17.73
2018-05-23T04:52:59.287Z,17.50
2018-05-23T04:55:26.755Z,16.03
2018-05-23T04:57:54.225Z,16.80
2018-05-23T05:00:21.677Z,17.50
2018-05-23T05:02:49.137Z,15.27
2018-05-23T05:05:16.615Z,17.70
2018-05-23T05:07:44.277Z,14.87
2018-05-23T05:10:11.936Z,13.80
2018-05-23T05:12:39.405Z,16.87
2018-05-23T05:15:06.844Z,14.70
2018-05-23T05:17:34.309Z,16.73
2018-05-23T05:20:01.854Z,15.80
2018-05-23T05:22:29.291Z,17.90
2018-05-23T05:24:56.784Z,16.93
2018-05-23T05:27:24.538Z,15.00
2018-05-23T05:29:52.107Z,16.73
2018-05-23T05:32:19.544Z,17.10
2018-05-23T05:34:47.356Z,21.50
2018-05-23T05:37:15.228Z,15.93
2018-05-23T05:39:42.671Z,16.40
2018-05-23T05:42:10.131Z,17.40
2018-05-23T05:44:37.638Z,15.77
2018-05-23T05:47:05.067Z,18.53
2018-05-23T05:49:32.527Z,16.00
2018-05-23T05:52:00.402Z,19.73
2018-05-23T05:54:27.846Z,17.90
2018-05-23T05:56:55.347Z,16.13
2018-05-23T05:59:22.811Z,15.10
2018-05-23T06:01:50.255Z,16.20
2018-05-23T06:04:17.729Z,16.20
2018-05-23T06:06:45.262Z,16.37
2018-05-23T06:09:12.727Z,14.80
2018-05-23T06:11:40.184Z,17.70
2018-05-23T06:14:07.617Z,19.47
2018-05-23T06:16:35.094Z,18.77
2018-05-23T06:19:02.553Z,14.23
2018-05-23T06:21:30.099Z,18.87
2018-05-23T06:23:58.317Z,17.97
2018-05-23T06:26:25.756Z,16.50
2018-05-23T06:28:53.211Z,16.50
2018-05-23T06:31:20.665Z,16.20
2018-05-23T06:33:48.139Z,17.30
2018-05-23T06:36:15.584Z,16.80
2018-05-23T06:38:43.024Z,15.90
2018-05-23T06:41:10.476Z,18.37
2018-05-23T06:43:37.989Z,17.10
2018-05-23T06:46:05.873Z,15.87
2018-05-23T06:48:33.292Z,18.80
2018-05-23T06:51:01.035Z,18.37
2018-05-23T06:53:28.585Z,17.70
2018-05-23T06:55:56.030Z,15.00
2018-05-23T06:58:23.495Z,24.27
2018-05-23T07:00:51.395Z,15.97
2018-05-23T07:03:18.831Z,16.83
2018-05-23T07:05:46.314Z,18.10
2018-05-23T07:08:13.720Z,15.63
2018-05-23T07:10:42.066Z,17.93
2018-05-23T07:13:09.503Z,16.27
2018-05-23T07:15:36.982Z,17.43
2018-05-23T07:18:04.434Z,17.27
2018-05-23T07:20:31.872Z,15.43
2018-05-23T07:22:59.335Z,14.47
2018-05-23T07:25:26.780Z,15.60
2018-05-23T07:27:54.215Z,17.57
2018-05-23T07:30:22.449Z,14.87
2018-05-23T07:32:49.893Z,17.13
2018-05-23T07:35:17.354Z,16.37
2018-05-23T07:37:44.791Z,16.03
2018-05-23T07:40:12.231Z,15.47
2018-05-23T07:42:40.913Z,16.97
2018-05-23T07:45:08.336Z,16.90
2018-05-23T07:47:35.782Z,18.37
2018-05-23T07:50:03.249Z,16.17
2018-05-23T07:52:30.728Z,20.67
2018-05-23T07:54:58.187Z,17.83
2018-05-23T07:57:25.627Z,17.73
2018-05-23T07:59:53.080Z,18.67
2018-05-23T08:02:20.979Z,17.83
2018-05-23T08:04:48.438Z,18.70
2018-05-23T08:07:15.904Z,14.87
2018-05-23T08:09:43.359Z,15.50
2018-05-23T08:12:10.843Z,16.27
2018-05-23T08:14:38.304Z,17.10
2018-05-23T08:17:05.765Z,15.60
2018-05-23T08:19:33.212Z,17.83
2018-05-23T08:22:00.699Z,15.73
2018-05-23T08:24:28.174Z,16.50
2018-05-23T08:26:55.606Z,16.53
2018-05-23T08:29:23.065Z,17.27
2018-05-23T08:31:50.524Z,17.63
2018-05-23T08:34:18.007Z,18.63
2018-05-23T08:36:45.435Z,16.43
2018-05-23T08:39:12.888Z,15.10
2018-05-23T08:41:40.400Z,17.87
2018-05-23T08:44:07.871Z,15.10
2018-05-23T08:46:35.325Z,20.10
2018-05-23T08:49:02.823Z,14.43
2018-05-23T08:51:30.297Z,17.73
2018-05-23T08:53:57.742Z,17.17
2018-05-23T08:56:25.187Z,17.97
2018-05-23T08:58:52.642Z,14.60
2018-05-23T09:01:20.100Z,16.07
2018-05-23T09:03:47.536Z,13.20
2018-05-23T09:06:14.995Z,15.20
2018-05-23T09:08:42.439Z,15.23
2018-05-23T09:11:09.888Z,15.63
2018-05-23T09:13:37.408Z,15.77
2018-05-23T09:16:04.850Z,14.10
2018-05-23T09:18:32.312Z,14.50
2018-05-23T09:20:59.771Z,14.53
2018-05-23T09:23:27.228Z,14.00
2018-05-23T09:25:54.689Z,15.17
2018-05-23T09:28:22.224Z,14.70
2018-05-23T09:30:49.672Z,13.30
2018-05-23T09:33:17.128Z,15.70
2018-05-23T09:35:44.588Z,15.17
2018-05-23T09:38:12.331Z,15.17
2018-05-23T09:40:39.788Z,14.77
2018-05-23T09:43:07.335Z,16.20
2018-05-23T09:45:34.782Z,15.97
2018-05-23T09:48:02.335Z,15.50
2018-05-23T09:50:30.060Z,14.93
2018-05-23T09:52:57.580Z,15.60
2018-05-23T09:55:25.024Z,14.03
2018-05-23T09:57:52.471Z,15.43
2018-05-23T10:00:25.720Z,14.37
2018-05-23T10:02:53.170Z,14.70
2018-05-23T10:05:20.611Z,16.03
2018-05-23T10:07:48.051Z,13.33
2018-05-23T10:10:15.555Z,12.40
2018-05-23T10:12:43.222Z,11.63
2018-05-23T10:15:10.671Z,10.60
2018-05-23T10:17:38.154Z,11.33
2018-05-23T10:20:05.811Z,12.10
2018-05-23T10:22:33.270Z,11.83
2018-05-23T10:25:00.810Z,13.43
2018-05-23T10:27:28.258Z,12.17
2018-05-23T10:29:56.009Z,12.27
2018-05-23T10:32:23.590Z,12.80
2018-05-23T10:34:51.379Z,11.80
2018-05-23T10:37:18.851Z,11.97
2018-05-23T10:39:46.670Z,11.13
2018-05-23T10:42:14.126Z,12.47
2018-05-23T10:44:41.652Z,13.43
2018-05-23T10:47:09.350Z,13.10
2018-05-23T10:49:37.809Z,11.70
2018-05-23T10:52:05.274Z,10.90
2018-05-23T10:54:32.736Z,11.90
2018-05-23T10:57:00.238Z,11.47
2018-05-23T10:59:27.614Z,12.20
2018-05-23T11:01:55.085Z,11.50
2018-05-23T11:04:22.530Z,12.57
2018-05-23T11:06:50.037Z,13.70
2018-05-23T11:09:17.508Z,13.67
2018-05-23T11:11:44.964Z,13.00
2018-05-23T11:14:12.399Z,12.47
2018-05-23T11:16:39.859Z,14.70
2018-05-23T11:19:07.345Z,13.33
2018-05-23T11:21:34.817Z,14.00
2018-05-23T11:24:02.274Z,13.27
2018-05-23T11:26:29.726Z,16.20
2018-05-23T11:28:57.259Z,14.37
2018-05-23T11:31:24.945Z,14.00
2018-05-23T11:33:52.585Z,13.67
2018-05-23T11:36:20.009Z,14.10
2018-05-23T11:38:47.754Z,13.90
2018-05-23T11:41:15.228Z,13.73
2018-05-23T11:43:42.673Z,13.53
2018-05-23T11:46:10.143Z,14.33
2018-05-23T11:48:37.570Z,14.37
2018-05-23T11:51:05.003Z,14.83
2018-05-23T11:53:32.463Z,13.93
2018-05-23T11:55:59.917Z,14.53
2018-05-23T11:58:27.380Z,12.30
2018-05-23T12:00:54.820Z,14.00
2018-05-23T12:03:22.261Z,13.90
2018-05-23T12:05:49.932Z,14.00
2018-05-23T12:08:17.375Z,12.23
2018-05-23T12:10:44.889Z,12.90
2018-05-23T12:13:12.500Z,11.83
2018-05-23T12:15:39.937Z,15.07
2018-05-23T12:18:07.402Z,12.43
2018-05-23T12:20:35.074Z,14.07
2018-05-23T12:23:02.508Z,13.73
2018-05-23T12:25:29.939Z,11.60
2018-05-23T12:27:57.384Z,11.20
2018-05-23T12:30:24.951Z,13.13
2018-05-23T12:32:52.400Z,12.20
2018-05-23T12:35:19.881Z,13.27
2018-05-23T12:37:47.333Z,12.27
2018-05-23T12:40:14.793Z,12.80
2018-05-23T12:42:42.269Z,12.20
2018-05-23T12:45:09.703Z,15.07
2018-05-23T12:47:37.169Z,12.10
2018-05-23T12:50:04.612Z,13.27
2018-05-23T12:52:32.065Z,11.70
2018-05-23T12:54:59.529Z,10.90
2018-05-23T12:57:26.986Z,10.77
2018-05-23T12:59:54.448Z,13.57
2018-05-23T13:02:21.892Z,12.10
2018-05-23T13:04:49.329Z,11.03
2018-05-23T13:07:16.786Z,10.90
2018-05-23T13:09:44.242Z,10.37
2018-05-23T13:12:11.736Z,11.37
2018-05-23T13:14:39.193Z,11.53
2018-05-23T13:17:06.633Z,11.50
2018-05-23T13:19:34.095Z,12.17
2018-05-23T13:22:01.531Z,10.90
2018-05-23T13:24:28.989Z,12.80
2018-05-23T13:26:56.423Z,12.30
2018-05-23T13:29:23.879Z,12.00
2018-05-23T13:31:51.355Z,12.73
2018-05-23T13:34:18.852Z,13.83
2018-05-23T13:36:46.785Z,11.50
2018-05-23T13:39:14.367Z,12.57
2018-05-23T13:41:41.831Z,11.47
2018-05-23T13:44:09.279Z,11.30
2018-05-23T13:46:36.732Z,10.90
2018-05-23T13:49:04.184Z,11.37
2018-05-23T13:51:31.633Z,12.83
2018-05-23T13:53:59.169Z,13.07
2018-05-23T13:56:26.650Z,10.97
2018-05-23T13:58:54.088Z,11.17
2018-05-23T14:01:21.564Z,13.10
2018-05-23T14:03:48.999Z,12.40
2018-05-23T14:06:16.444Z,15.50
2018-05-23T14:08:43.911Z,12.40
2018-05-23T14:11:11.453Z,13.10
2018-05-23T14:13:39.107Z,12.20
2018-05-23T14:16:06.562Z,13.10
2018-05-23T14:18:34.788Z,13.70
2018-05-23T14:21:02.224Z,12.40
2018-05-23T14:23:29.672Z,12.57
2018-05-23T14:25:57.359Z,15.50
2018-05-23T14:28:24.865Z,11.60
2018-05-23T14:30:52.288Z,11.97
2018-05-23T14:33:19.730Z,10.40
2018-05-23T14:35:47.247Z,11.93
2018-05-23T14:38:14.646Z,14.50
2018-05-23T14:40:42.095Z,10.27
2018-05-23T14:43:09.684Z,10.30
2018-05-23T14:45:37.143Z,10.60
2018-05-23T14:48:04.609Z,11.63
2018-05-23T14:50:32.052Z,13.60
2018-05-23T14:52:59.527Z,13.03
2018-05-23T14:55:27.077Z,16.30
2018-05-23T14:57:54.530Z,20.33
2018-05-23T15:00:22.726Z,12.07
2018-05-23T15:02:50.179Z,14.43
2018-05-23T15:05:17.621Z,11.73
2018-05-23T15:07:45.064Z,12.40
2018-05-23T15:10:12.542Z,18.27
2018-05-23T15:12:40.745Z,20.80
2018-05-23T15:15:08.217Z,21.63
2018-05-23T15:17:35.664Z,23.40
2018-05-23T15:20:03.153Z,19.17
2018-05-23T15:22:30.556Z,17.50
2018-05-23T15:24:58.007Z,27.50
2018-05-23T15:27:25.455Z,19.23
2018-05-23T15:29:53.025Z,19.13
2018-05-23T15:32:20.499Z,17.90
2018-05-23T15:34:47.968Z,21.30
2018-05-23T15:37:15.411Z,17.93
2018-05-23T15:39:42.855Z,17.30
2018-05-23T15:42:10.306Z,19.00
2018-05-23T15:44:37.756Z,17.43
2018-05-23T15:47:05.283Z,16.47
2018-05-23T15:49:33.511Z,19.03
2018-05-23T15:52:01.030Z,17.67
2018-05-23T15:54:29.271Z,17.37
2018-05-23T15:56:56.791Z,20.40
2018-05-23T15:59:24.250Z,16.20
2018-05-23T16:04:22.833Z,15.20
2018-05-23T16:06:50.289Z,15.40
2018-05-23T16:09:17.760Z,14.20
2018-05-23T16:11:45.208Z,13.70
2018-05-23T16:14:12.672Z,16.43
2018-05-23T16:16:40.120Z,15.50
2018-05-23T16:19:07.994Z,13.10
2018-05-23T16:21:35.461Z,13.87
2018-05-23T16:24:03.668Z,14.60
2018-05-23T16:26:31.141Z,13.57
2018-05-23T16:28:58.621Z,16.07
2018-05-23T16:31:26.118Z,12.53
2018-05-23T16:33:53.569Z,13.90
2018-05-23T16:36:21.031Z,12.57
2018-05-23T16:38:48.479Z,14.70
2018-05-23T16:41:15.987Z,15.13
2018-05-23T16:43:43.443Z,12.53
2018-05-23T16:46:11.021Z,11.70
2018-05-23T16:48:39.568Z,11.07
2018-05-23T16:51:07.027Z,11.33
2018-05-23T16:53:34.527Z,11.27
2018-05-23T16:56:01.974Z,11.43
2018-05-23T16:58:29.419Z,12.13
2018-05-23T17:00:56.861Z,11.70
2018-05-23T17:03:24.368Z,11.93
2018-05-23T17:05:51.833Z,12.23
2018-05-23T17:08:19.299Z,10.20
2018-05-23T17:10:46.749Z,10.27
2018-05-23T17:13:14.261Z,11.40
2018-05-23T17:15:41.733Z,11.93
2018-05-23T17:18:09.190Z,11.30
2018-05-23T17:20:36.979Z,11.93
2018-05-23T17:23:04.453Z,11.93
2018-05-23T17:25:31.914Z,10.20
2018-05-23T17:27:59.368Z,11.17
2018-05-23T17:30:26.897Z,10.33
2018-05-23T17:32:54.312Z,16.13
2018-05-23T17:35:21.771Z,11.10
2018-05-23T17:37:49.240Z,10.90
2018-05-23T17:40:16.700Z,9.50
2018-05-23T17:42:44.136Z,9.47
2018-05-23T17:45:11.592Z,9.63
2018-05-23T17:47:39.037Z,10.27
2018-05-23T17:50:06.602Z,8.57
2018-05-23T17:52:34.039Z,10.30
2018-05-23T17:55:01.509Z,9.10
2018-05-23T17:57:28.964Z,11.53
2018-05-23T17:59:56.412Z,12.47
2018-05-23T18:02:23.863Z,14.97
2018-05-23T18:04:51.700Z,12.10
2018-05-23T18:07:19.160Z,12.77
2018-05-23T18:09:46.640Z,13.87
2018-05-23T18:12:14.577Z,12.90
2018-05-23T18:14:41.986Z,11.80
2018-05-23T18:17:09.815Z,13.13
2018-05-23T18:19:37.357Z,13.47
2018-05-23T18:22:04.819Z,14.30
2018-05-23T18:24:32.289Z,12.17
2018-05-23T18:26:59.712Z,12.23
2018-05-23T18:29:27.968Z,13.60
2018-05-23T18:31:55.397Z,12.33
2018-05-23T18:34:22.836Z,15.00
2018-05-23T18:36:50.348Z,14.87
2018-05-23T18:39:17.795Z,12.43
2018-05-23T18:41:45.278Z,10.80
2018-05-23T18:44:12.719Z,11.33
2018-05-23T18:46:40.160Z,18.93
2018-05-23T18:49:07.633Z,12.10
2018-05-23T18:51:35.178Z,11.17
2018-05-23T18:54:02.641Z,10.30
2018-05-23T18:56:30.091Z,14.70
2018-05-23T18:58:57.517Z,14.83
2018-05-23T19:01:25.093Z,14.27
2018-05-23T19:03:53.318Z,14.93
2018-05-23T19:06:20.785Z,11.40
2018-05-23T19:08:48.239Z,11.77
2018-05-23T19:11:15.693Z,12.77
2018-05-23T19:13:43.317Z,10.27
2018-05-23T19:16:10.764Z,11.87
2018-05-23T19:18:38.534Z,13.07
2018-05-23T19:21:05.895Z,15.33
2018-05-23T19:23:33.332Z,11.03
2018-05-23T19:26:00.796Z,12.77
2018-05-23T19:31:12.074Z,11.57
2018-05-23T19:33:39.503Z,12.57
2018-05-23T19:36:07.168Z,12.47
2018-05-23T19:38:34.642Z,14.00
2018-05-23T19:41:02.253Z,10.50
2018-05-23T19:43:29.719Z,12.40
2018-05-23T19:45:57.256Z,10.73
2018-05-23T19:48:24.700Z,13.50
2018-05-23T19:50:52.187Z,10.63
2018-05-23T19:53:19.640Z,12.37
2018-05-23T19:55:47.100Z,12.30
2018-05-23T19:58:14.566Z,14.00
2018-05-23T20:00:42.040Z,10.60
2018-05-23T20:03:09.497Z,13.17
2018-05-23T20:05:36.940Z,11.60
2018-05-23T20:08:04.541Z,12.50
2018-05-23T20:10:31.859Z,11.20
2018-05-23T20:12:59.287Z,14.17
2018-05-23T20:15:26.747Z,12.80
2018-05-23T20:17:54.577Z,13.83
2018-05-23T20:20:22.048Z,12.60
2018-05-23T20:22:49.492Z,12.90
2018-05-23T20:25:16.943Z,13.53
2018-05-23T20:27:44.509Z,12.80
2018-05-23T20:30:11.930Z,13.90
2018-05-23T20:32:39.417Z,13.93
2018-05-23T20:35:07.060Z,17.10
2018-05-23T20:37:34.520Z,12.17
2018-05-23T20:40:02.241Z,14.43
2018-05-23T20:42:29.682Z,14.33
2018-05-23T20:44:57.150Z,12.00
2018-05-23T20:47:24.591Z,12.60
2018-05-23T20:49:52.401Z,12.50
2018-05-23T20:52:19.877Z,11.63
2018-05-23T20:54:47.344Z,19.17
2018-05-23T20:57:14.800Z,11.57
2018-05-23T20:59:42.266Z,14.20
2018-05-23T21:02:09.703Z,16.77
2018-05-23T21:04:37.171Z,14.83
2018-05-23T21:07:04.827Z,13.70
2018-05-23T21:09:32.303Z,15.87
2018-05-23T21:11:59.765Z,13.73
2018-05-23T21:14:27.206Z,16.67
2018-05-23T21:16:54.650Z,12.50
2018-05-23T21:19:22.353Z,12.20
2018-05-23T21:21:49.823Z,13.00
2018-05-23T21:24:17.277Z,13.90
2018-05-23T21:26:44.735Z,12.40
2018-05-23T21:29:12.208Z,11.53
2018-05-23T21:31:39.665Z,15.10
2018-05-23T21:34:07.360Z,12.90
2018-05-23T21:36:35.190Z,12.47
2018-05-23T21:39:02.640Z,13.67
2018-05-23T21:41:30.145Z,16.20
2018-05-23T21:43:57.811Z,13.37
2018-05-23T21:46:25.267Z,12.93
2018-05-23T21:48:52.704Z,12.93
2018-05-23T21:51:20.590Z,14.27
2018-05-23T21:53:48.047Z,12.97
2018-05-23T21:56:15.494Z,13.47
2018-05-23T21:58:43.410Z,11.90
2018-05-23T22:01:13.511Z,13.37
2018-05-23T22:03:41.177Z,11.90
2018-05-23T22:06:08.649Z,12.30
2018-05-23T22:08:36.083Z,13.40
2018-05-23T22:11:03.629Z,14.00
2018-05-23T22:13:31.076Z,12.30
2018-05-23T22:15:58.879Z,12.77
2018-05-23T22:18:26.781Z,14.83
2018-05-23T22:20:54.196Z,12.17
2018-05-23T22:23:21.651Z,25.87
2018-05-23T22:25:49.093Z,13.40
2018-05-23T22:28:16.553Z,12.67
2018-05-23T22:30:44.090Z,13.50
2018-05-23T22:33:11.688Z,14.60
2018-05-23T22:35:39.232Z,13.03
2018-05-23T22:38:06.708Z,13.67
2018-05-23T22:40:34.717Z,13.43
2018-05-23T22:43:02.200Z,14.70
2018-05-23T22:45:30.070Z,13.57
2018-05-23T22:47:57.525Z,13.17
2018-05-23T22:50:24.960Z,15.37
2018-05-23T22:52:52.403Z,15.43
2018-05-23T22:55:19.859Z,22.00
2018-05-23T22:57:47.356Z,16.17
2018-05-23T23:00:17.528Z,16.20
2018-05-23T23:02:45.186Z,16.33
2018-05-23T23:05:12.856Z,15.37
2018-05-23T23:07:40.571Z,13.90
2018-05-23T23:10:08.372Z,17.07
2018-05-23T23:12:35.837Z,13.37
2018-05-23T23:15:03.297Z,17.60
2018-05-23T23:17:30.823Z,13.80
2018-05-23T23:19:58.517Z,12.30
2018-05-23T23:22:40.836Z,12.20
2018-05-23T23:25:08.287Z,14.57
2018-05-23T23:27:35.740Z,14.77
2018-05-23T23:30:03.195Z,14.80
2018-05-23T23:32:30.667Z,15.23
2018-05-23T23:34:58.122Z,15.27
2018-05-23T23:37:25.632Z,15.97
2018-05-23T23:39:53.082Z,15.10
2018-05-23T23:42:20.527Z,14.03
2018-05-23T23:44:48.003Z,16.47
2018-05-23T23:47:15.852Z,14.33
2018-05-23T23:49:43.352Z,19.37
2018-05-23T23:52:10.788Z,14.27
2018-05-23T23:54:38.247Z,13.97
2018-05-23T23:57:05.697Z,15.03
2018-05-23T23:59:33.178Z,13.97
